sensor_id;sensor_type;location;lat;lon;timestamp;P1;durP1;ratioP1;P2;durP2;ratioP2
20792;SDS011;10556;-33.662;151.094;2023-04-23T00:03:22;2.50;;;1.23;;
20792;SDS011;10556;-33.662;151.094;2023-04-23T00:08:25;1.97;;;1.43;;
20792;SDS011;10556;-33.662;151.094;2023-04-23T00:13:27;2.07;;;0.90;;
20792;SDS011;10556;-33.662;151.094;2023-04-23T00:18:28;2.93;;;1.00;;
20792;SDS011;10556;-33.662;151.094;2023-04-23T00:23:31;2.37;;;1.27;;
20792;SDS011;10556;-33.662;151.094;2023-04-23T00:28:32;1.40;;;0.93;;
20792;SDS011;10556;-33.662;151.094;2023-04-23T00:33:34;2.07;;;1.00;;
20792;SDS011;10556;-33.662;151.094;2023-04-23T00:38:37;3.77;;;1.33;;
20792;SDS011;10556;-33.662;151.094;2023-04-23T00:43:38;1.43;;;0.63;;
20792;SDS011;10556;-33.662;151.094;2023-04-23T00:48:39;1.70;;;1.10;;
20792;SDS011;10556;-33.662;151.094;2023-04-23T00:53:43;2.20;;;0.87;;
20792;SDS011;10556;-33.662;151.094;2023-04-23T00:58:44;2.50;;;0.80;;
20792;SDS011;10556;-33.662;151.094;2023-04-23T01:03:45;1.63;;;1.10;;
20792;SDS011;10556;-33.662;151.094;2023-04-23T01:08:50;1.27;;;0.70;;
20792;SDS011;10556;-33.662;151.094;2023-04-23T01:13:51;2.50;;;0.70;;
20792;SDS011;10556;-33.662;151.094;2023-04-23T01:18:53;2.43;;;0.80;;
20792;SDS011;10556;-33.662;151.094;2023-04-23T01:23:56;2.07;;;0.60;;
20792;SDS011;10556;-33.662;151.094;2023-04-23T01:28:57;2.33;;;0.70;;
20792;SDS011;10556;-33.662;151.094;2023-04-23T01:33:58;1.43;;;0.70;;
20792;SDS011;10556;-33.662;151.094;2023-04-23T01:39:02;1.63;;;0.87;;
20792;SDS011;10556;-33.662;151.094;2023-04-23T01:44:03;1.30;;;0.70;;
20792;SDS011;10556;-33.662;151.094;2023-04-23T01:49:04;1.03;;;0.60;;
20792;SDS011;10556;-33.662;151.094;2023-04-23T01:54:07;1.43;;;0.60;;
20792;SDS011;10556;-33.662;151.094;2023-04-23T01:59:08;2.20;;;0.90;;
20792;SDS011;10556;-33.662;151.094;2023-04-23T02:04:10;1.23;;;0.43;;
20792;SDS011;10556;-33.662;151.094;2023-04-23T02:09:13;1.13;;;0.50;;
20792;SDS011;10556;-33.662;151.094;2023-04-23T02:14:14;1.63;;;0.40;;
20792;SDS011;10556;-33.662;151.094;2023-04-23T02:19:16;1.80;;;0.53;;
20792;SDS011;10556;-33.662;151.094;2023-04-23T02:24:19;2.23;;;0.50;;
20792;SDS011;10556;-33.662;151.094;2023-04-23T02:29:20;6.33;;;3.33;;
20792;SDS011;10556;-33.662;151.094;2023-04-23T02:34:21;22.57;;;9.77;;
20792;SDS011;10556;-33.662;151.094;2023-04-23T02:39:24;31.00;;;13.63;;
20792;SDS011;10556;-33.662;151.094;2023-04-23T02:44:25;14.03;;;5.70;;
20792;SDS011;10556;-33.662;151.094;2023-04-23T02:49:29;6.07;;;2.80;;
20792;SDS011;10556;-33.662;151.094;2023-04-23T02:54:32;4.80;;;1.93;;
20792;SDS011;10556;-33.662;151.094;2023-04-23T02:59:33;3.10;;;1.43;;
20792;SDS011;10556;-33.662;151.094;2023-04-23T03:04:34;4.50;;;1.10;;
20792;SDS011;10556;-33.662;151.094;2023-04-23T03:09:37;2.13;;;1.00;;
20792;SDS011;10556;-33.662;151.094;2023-04-23T03:14:39;1.47;;;0.70;;
20792;SDS011;10556;-33.662;151.094;2023-04-23T03:19:40;1.77;;;0.60;;
20792;SDS011;10556;-33.662;151.094;2023-04-23T03:24:43;0.77;;;0.60;;
20792;SDS011;10556;-33.662;151.094;2023-04-23T03:29:44;1.27;;;0.60;;
20792;SDS011;10556;-33.662;151.094;2023-04-23T03:34:45;0.67;;;0.30;;
20792;SDS011;10556;-33.662;151.094;2023-04-23T03:39:49;1.47;;;0.67;;
20792;SDS011;10556;-33.662;151.094;2023-04-23T03:44:50;2.33;;;0.50;;
20792;SDS011;10556;-33.662;151.094;2023-04-23T03:49:51;1.97;;;0.70;;
20792;SDS011;10556;-33.662;151.094;2023-04-23T03:54:54;0.57;;;0.30;;
20792;SDS011;10556;-33.662;151.094;2023-04-23T03:59:55;0.97;;;0.43;;
20792;SDS011;10556;-33.662;151.094;2023-04-23T04:04:57;1.40;;;0.40;;
20792;SDS011;10556;-33.662;151.094;2023-04-23T04:10:00;1.13;;;0.43;;
20792;SDS011;10556;-33.662;151.094;2023-04-23T04:15:01;0.57;;;0.40;;
20792;SDS011;10556;-33.662;151.094;2023-04-23T04:20:02;1.27;;;0.50;;
20792;SDS011;10556;-33.662;151.094;2023-04-23T04:25:06;0.70;;;0.50;;
20792;SDS011;10556;-33.662;151.094;2023-04-23T04:30:08;0.97;;;0.53;;
20792;SDS011;10556;-33.662;151.094;2023-04-23T04:35:09;0.40;;;0.40;;
20792;SDS011;10556;-33.662;151.094;2023-04-23T04:40:13;0.83;;;0.40;;
20792;SDS011;10556;-33.662;151.094;2023-04-23T04:45:14;1.40;;;0.60;;
20792;SDS011;10556;-33.662;151.094;2023-04-23T04:50:15;1.07;;;0.50;;
20792;SDS011;10556;-33.662;151.094;2023-04-23T04:55:18;0.60;;;0.50;;
20792;SDS011;10556;-33.662;151.094;2023-04-23T05:00:20;0.50;;;0.20;;
20792;SDS011;10556;-33.662;151.094;2023-04-23T05:05:22;1.27;;;0.30;;
20792;SDS011;10556;-33.662;151.094;2023-04-23T05:10:25;0.40;;;0.30;;
20792;SDS011;10556;-33.662;151.094;2023-04-23T05:15:26;0.40;;;0.30;;
20792;SDS011;10556;-33.662;151.094;2023-04-23T05:20:28;0.33;;;0.33;;
20792;SDS011;10556;-33.662;151.094;2023-04-23T05:25:31;2.50;;;0.57;;
20792;SDS011;10556;-33.662;151.094;2023-04-23T05:30:32;1.10;;;0.50;;
20792;SDS011;10556;-33.662;151.094;2023-04-23T05:35:33;0.43;;;0.30;;
20792;SDS011;10556;-33.662;151.094;2023-04-23T05:45:39;0.40;;;0.40;;
20792;SDS011;10556;-33.662;151.094;2023-04-23T05:50:40;0.80;;;0.30;;
20792;SDS011;10556;-33.662;151.094;2023-04-23T05:55:41;0.30;;;0.30;;
20792;SDS011;10556;-33.662;151.094;2023-04-23T06:00:44;0.80;;;0.50;;
20792;SDS011;10556;-33.662;151.094;2023-04-23T06:05:45;0.53;;;0.50;;
20792;SDS011;10556;-33.662;151.094;2023-04-23T06:10:47;2.20;;;1.00;;
20792;SDS011;10556;-33.662;151.094;2023-04-23T06:15:50;1.87;;;1.00;;
20792;SDS011;10556;-33.662;151.094;2023-04-23T06:20:51;1.77;;;0.90;;
20792;SDS011;10556;-33.662;151.094;2023-04-23T06:25:52;1.03;;;0.87;;
20792;SDS011;10556;-33.662;151.094;2023-04-23T06:30:55;0.90;;;0.70;;
20792;SDS011;10556;-33.662;151.094;2023-04-23T06:35:57;0.87;;;0.60;;
20792;SDS011;10556;-33.662;151.094;2023-04-23T06:40:58;1.03;;;0.60;;
20792;SDS011;10556;-33.662;151.094;2023-04-23T06:46:01;1.17;;;0.80;;
20792;SDS011;10556;-33.662;151.094;2023-04-23T06:51:02;0.87;;;0.80;;
20792;SDS011;10556;-33.662;151.094;2023-04-23T06:56:04;3.00;;;1.10;;
20792;SDS011;10556;-33.662;151.094;2023-04-23T07:01:07;0.87;;;0.70;;
20792;SDS011;10556;-33.662;151.094;2023-04-23T07:06:08;0.80;;;0.70;;
20792;SDS011;10556;-33.662;151.094;2023-04-23T07:11:09;1.00;;;0.80;;
20792;SDS011;10556;-33.662;151.094;2023-04-23T07:16:13;0.77;;;0.77;;
20792;SDS011;10556;-33.662;151.094;2023-04-23T07:21:14;0.73;;;0.70;;
20792;SDS011;10556;-33.662;151.094;2023-04-23T07:26:15;0.70;;;0.60;;
20792;SDS011;10556;-33.662;151.094;2023-04-23T07:31:18;1.00;;;0.83;;
20792;SDS011;10556;-33.662;151.094;2023-04-23T07:36:20;1.20;;;0.80;;
20792;SDS011;10556;-33.662;151.094;2023-04-23T07:41:21;1.23;;;1.13;;
20792;SDS011;10556;-33.662;151.094;2023-04-23T07:46:24;1.23;;;1.13;;
20792;SDS011;10556;-33.662;151.094;2023-04-23T07:51:25;1.70;;;1.30;;
20792;SDS011;10556;-33.662;151.094;2023-04-23T07:56:27;1.67;;;1.33;;
20792;SDS011;10556;-33.662;151.094;2023-04-23T08:01:30;2.37;;;1.70;;
20792;SDS011;10556;-33.662;151.094;2023-04-23T08:06:32;2.20;;;1.43;;
20792;SDS011;10556;-33.662;151.094;2023-04-23T08:11:33;2.17;;;1.47;;
20792;SDS011;10556;-33.662;151.094;2023-04-23T08:16:36;1.53;;;1.33;;
20792;SDS011;10556;-33.662;151.094;2023-04-23T08:21:37;1.40;;;1.30;;
20792;SDS011;10556;-33.662;151.094;2023-04-23T08:26:38;1.73;;;1.53;;
20792;SDS011;10556;-33.662;151.094;2023-04-23T08:31:41;3.20;;;1.50;;
20792;SDS011;10556;-33.662;151.094;2023-04-23T08:36:43;2.83;;;1.80;;
20792;SDS011;10556;-33.662;151.094;2023-04-23T08:41:44;2.23;;;1.80;;
20792;SDS011;10556;-33.662;151.094;2023-04-23T08:46:49;2.57;;;1.67;;
20792;SDS011;10556;-33.662;151.094;2023-04-23T08:51:52;2.50;;;1.57;;
20792;SDS011;10556;-33.662;151.094;2023-04-23T08:56:55;1.47;;;1.37;;
20792;SDS011;10556;-33.662;151.094;2023-04-23T09:01:58;3.20;;;1.50;;
20792;SDS011;10556;-33.662;151.094;2023-04-23T09:06:59;2.43;;;1.57;;
20792;SDS011;10556;-33.662;151.094;2023-04-23T09:12:01;2.73;;;1.40;;
20792;SDS011;10556;-33.662;151.094;2023-04-23T09:17:04;1.50;;;1.13;;
20792;SDS011;10556;-33.662;151.094;2023-04-23T09:22:05;1.37;;;1.10;;
20792;SDS011;10556;-33.662;151.094;2023-04-23T09:27:07;1.97;;;1.40;;
20792;SDS011;10556;-33.662;151.094;2023-04-23T09:32:10;1.53;;;1.40;;
20792;SDS011;10556;-33.662;151.094;2023-04-23T09:37:11;1.77;;;1.30;;
20792;SDS011;10556;-33.662;151.094;2023-04-23T09:42:13;1.63;;;1.20;;
20792;SDS011;10556;-33.662;151.094;2023-04-23T09:47:17;2.73;;;1.70;;
20792;SDS011;10556;-33.662;151.094;2023-04-23T09:52:18;1.93;;;1.70;;
20792;SDS011;10556;-33.662;151.094;2023-04-23T09:57:20;2.53;;;1.63;;
20792;SDS011;10556;-33.662;151.094;2023-04-23T10:02:27;1.73;;;1.40;;
20792;SDS011;10556;-33.662;151.094;2023-04-23T10:07:29;2.37;;;1.77;;
20792;SDS011;10556;-33.662;151.094;2023-04-23T10:12:30;1.83;;;1.57;;
20792;SDS011;10556;-33.662;151.094;2023-04-23T10:17:33;3.83;;;1.80;;
20792;SDS011;10556;-33.662;151.094;2023-04-23T10:22:35;2.23;;;1.83;;
20792;SDS011;10556;-33.662;151.094;2023-04-23T10:27:38;2.50;;;1.50;;
20792;SDS011;10556;-33.662;151.094;2023-04-23T10:32:41;2.03;;;1.47;;
20792;SDS011;10556;-33.662;151.094;2023-04-23T10:37:44;2.13;;;1.60;;
20792;SDS011;10556;-33.662;151.094;2023-04-23T10:42:46;2.13;;;1.93;;
20792;SDS011;10556;-33.662;151.094;2023-04-23T10:47:49;2.97;;;1.60;;
20792;SDS011;10556;-33.662;151.094;2023-04-23T10:52:51;3.40;;;1.60;;
20792;SDS011;10556;-33.662;151.094;2023-04-23T10:57:55;3.30;;;1.80;;
20792;SDS011;10556;-33.662;151.094;2023-04-23T11:02:59;2.77;;;1.97;;
20792;SDS011;10556;-33.662;151.094;2023-04-23T11:08:02;2.67;;;2.23;;
20792;SDS011;10556;-33.662;151.094;2023-04-23T11:18:27;3.90;;;2.87;;
20792;SDS011;10556;-33.662;151.094;2023-04-23T11:23:28;3.03;;;2.50;;
20792;SDS011;10556;-33.662;151.094;2023-04-23T11:28:30;5.73;;;2.60;;
20792;SDS011;10556;-33.662;151.094;2023-04-23T11:33:34;5.00;;;2.50;;
20792;SDS011;10556;-33.662;151.094;2023-04-23T11:38:36;3.80;;;2.80;;
20792;SDS011;10556;-33.662;151.094;2023-04-23T11:43:37;4.80;;;2.53;;
20792;SDS011;10556;-33.662;151.094;2023-04-23T11:48:41;5.27;;;2.40;;
20792;SDS011;10556;-33.662;151.094;2023-04-23T11:53:44;2.57;;;2.07;;
20792;SDS011;10556;-33.662;151.094;2023-04-23T11:58:46;6.60;;;2.90;;
20792;SDS011;10556;-33.662;151.094;2023-04-23T12:03:49;4.27;;;2.10;;
20792;SDS011;10556;-33.662;151.094;2023-04-23T12:08:50;3.67;;;2.33;;
20792;SDS011;10556;-33.662;151.094;2023-04-23T12:13:52;2.33;;;2.03;;
20792;SDS011;10556;-33.662;151.094;2023-04-23T12:18:55;5.27;;;2.97;;
20792;SDS011;10556;-33.662;151.094;2023-04-23T12:23:56;2.13;;;2.00;;
20792;SDS011;10556;-33.662;151.094;2023-04-23T12:28:58;2.20;;;1.80;;
20792;SDS011;10556;-33.662;151.094;2023-04-23T12:34:03;1.77;;;1.47;;
20792;SDS011;10556;-33.662;151.094;2023-04-23T12:44:26;2.77;;;1.30;;
20792;SDS011;10556;-33.662;151.094;2023-04-23T12:49:29;3.30;;;1.57;;
20792;SDS011;10556;-33.662;151.094;2023-04-23T12:54:31;4.03;;;1.80;;
20792;SDS011;10556;-33.662;151.094;2023-04-23T12:59:32;3.30;;;1.30;;
20792;SDS011;10556;-33.662;151.094;2023-04-23T13:04:35;2.50;;;1.23;;
20792;SDS011;10556;-33.662;151.094;2023-04-23T13:09:37;2.63;;;1.40;;
20792;SDS011;10556;-33.662;151.094;2023-04-23T13:14:38;3.27;;;1.37;;
20792;SDS011;10556;-33.662;151.094;2023-04-23T13:19:41;1.77;;;1.03;;
20792;SDS011;10556;-33.662;151.094;2023-04-23T13:24:42;1.63;;;1.17;;
20792;SDS011;10556;-33.662;151.094;2023-04-23T13:29:43;1.70;;;1.10;;
20792;SDS011;10556;-33.662;151.094;2023-04-23T13:34:46;3.40;;;1.20;;
20792;SDS011;10556;-33.662;151.094;2023-04-23T13:39:48;5.50;;;1.30;;
20792;SDS011;10556;-33.662;151.094;2023-04-23T13:44:49;8.87;;;2.20;;
20792;SDS011;10556;-33.662;151.094;2023-04-23T13:49:52;3.73;;;1.53;;
20792;SDS011;10556;-33.662;151.094;2023-04-23T13:54:53;4.27;;;1.23;;
20792;SDS011;10556;-33.662;151.094;2023-04-23T13:59:54;4.43;;;1.23;;
20792;SDS011;10556;-33.662;151.094;2023-04-23T14:04:57;4.13;;;1.13;;
20792;SDS011;10556;-33.662;151.094;2023-04-23T14:09:59;2.93;;;1.30;;
20792;SDS011;10556;-33.662;151.094;2023-04-23T14:15:00;2.20;;;1.30;;
20792;SDS011;10556;-33.662;151.094;2023-04-23T14:20:03;2.60;;;1.30;;
20792;SDS011;10556;-33.662;151.094;2023-04-23T14:25:07;2.67;;;1.03;;
20792;SDS011;10556;-33.662;151.094;2023-04-23T14:30:13;2.73;;;1.20;;
20792;SDS011;10556;-33.662;151.094;2023-04-23T14:35:16;2.60;;;1.00;;
20792;SDS011;10556;-33.662;151.094;2023-04-23T14:40:17;2.03;;;1.00;;
20792;SDS011;10556;-33.662;151.094;2023-04-23T14:45:19;1.33;;;1.00;;
20792;SDS011;10556;-33.662;151.094;2023-04-23T14:50:22;4.23;;;1.13;;
20792;SDS011;10556;-33.662;151.094;2023-04-23T14:55:23;4.10;;;1.00;;
20792;SDS011;10556;-33.662;151.094;2023-04-23T15:00:24;1.43;;;0.80;;
20792;SDS011;10556;-33.662;151.094;2023-04-23T15:05:27;1.47;;;0.93;;
20792;SDS011;10556;-33.662;151.094;2023-04-23T15:10:29;2.73;;;1.20;;
20792;SDS011;10556;-33.662;151.094;2023-04-23T15:15:37;2.03;;;0.90;;
20792;SDS011;10556;-33.662;151.094;2023-04-23T15:20:43;2.27;;;1.30;;
20792;SDS011;10556;-33.662;151.094;2023-04-23T15:25:45;5.77;;;1.00;;
20792;SDS011;10556;-33.662;151.094;2023-04-23T15:30:46;2.70;;;1.17;;
20792;SDS011;10556;-33.662;151.094;2023-04-23T15:35:49;2.70;;;1.10;;
20792;SDS011;10556;-33.662;151.094;2023-04-23T15:40:50;2.87;;;0.90;;
20792;SDS011;10556;-33.662;151.094;2023-04-23T15:45:52;2.17;;;0.90;;
20792;SDS011;10556;-33.662;151.094;2023-04-23T15:50:55;2.03;;;0.80;;
20792;SDS011;10556;-33.662;151.094;2023-04-23T15:55:56;1.83;;;0.93;;
20792;SDS011;10556;-33.662;151.094;2023-04-23T16:00:57;2.27;;;1.00;;
20792;SDS011;10556;-33.662;151.094;2023-04-23T16:06:00;4.43;;;1.10;;
20792;SDS011;10556;-33.662;151.094;2023-04-23T16:11:02;1.17;;;0.70;;
20792;SDS011;10556;-33.662;151.094;2023-04-23T16:16:03;1.83;;;0.70;;
20792;SDS011;10556;-33.662;151.094;2023-04-23T16:21:07;3.00;;;0.80;;
20792;SDS011;10556;-33.662;151.094;2023-04-23T16:26:08;2.30;;;0.87;;
20792;SDS011;10556;-33.662;151.094;2023-04-23T16:31:09;1.67;;;0.77;;
20792;SDS011;10556;-33.662;151.094;2023-04-23T16:36:12;2.03;;;0.70;;
20792;SDS011;10556;-33.662;151.094;2023-04-23T16:41:13;2.90;;;0.87;;
20792;SDS011;10556;-33.662;151.094;2023-04-23T16:46:15;3.43;;;1.10;;
20792;SDS011;10556;-33.662;151.094;2023-04-23T16:51:18;6.20;;;1.00;;
20792;SDS011;10556;-33.662;151.094;2023-04-23T16:56:19;0.77;;;0.60;;
20792;SDS011;10556;-33.662;151.094;2023-04-23T17:01:20;3.03;;;0.80;;
20792;SDS011;10556;-33.662;151.094;2023-04-23T17:06:26;2.47;;;0.80;;
20792;SDS011;10556;-33.662;151.094;2023-04-23T17:11:28;1.00;;;0.60;;
20792;SDS011;10556;-33.662;151.094;2023-04-23T17:16:29;1.70;;;0.60;;
20792;SDS011;10556;-33.662;151.094;2023-04-23T17:21:32;1.23;;;0.90;;
20792;SDS011;10556;-33.662;151.094;2023-04-23T17:26:33;1.30;;;0.63;;
20792;SDS011;10556;-33.662;151.094;2023-04-23T17:31:35;2.97;;;1.07;;
20792;SDS011;10556;-33.662;151.094;2023-04-23T17:36:38;1.73;;;0.90;;
20792;SDS011;10556;-33.662;151.094;2023-04-23T17:41:39;2.27;;;0.80;;
20792;SDS011;10556;-33.662;151.094;2023-04-23T17:46:40;1.87;;;0.60;;
20792;SDS011;10556;-33.662;151.094;2023-04-23T17:51:43;2.73;;;0.90;;
20792;SDS011;10556;-33.662;151.094;2023-04-23T17:56:48;3.77;;;0.93;;
20792;SDS011;10556;-33.662;151.094;2023-04-23T18:01:49;2.83;;;0.90;;
20792;SDS011;10556;-33.662;151.094;2023-04-23T18:06:53;5.00;;;0.83;;
20792;SDS011;10556;-33.662;151.094;2023-04-23T18:11:54;1.10;;;0.70;;
20792;SDS011;10556;-33.662;151.094;2023-04-23T18:16:55;0.93;;;0.67;;
20792;SDS011;10556;-33.662;151.094;2023-04-23T18:21:58;2.87;;;0.70;;
20792;SDS011;10556;-33.662;151.094;2023-04-23T18:27:00;2.40;;;0.80;;
20792;SDS011;10556;-33.662;151.094;2023-04-23T18:32:01;2.23;;;0.60;;
20792;SDS011;10556;-33.662;151.094;2023-04-23T18:37:06;1.13;;;0.70;;
20792;SDS011;10556;-33.662;151.094;2023-04-23T18:42:08;3.80;;;1.10;;
20792;SDS011;10556;-33.662;151.094;2023-04-23T18:47:09;1.27;;;0.53;;
20792;SDS011;10556;-33.662;151.094;2023-04-23T18:52:12;2.27;;;0.70;;
20792;SDS011;10556;-33.662;151.094;2023-04-23T18:57:13;1.93;;;0.70;;
20792;SDS011;10556;-33.662;151.094;2023-04-23T19:02:15;0.97;;;0.63;;
20792;SDS011;10556;-33.662;151.094;2023-04-23T19:07:18;4.00;;;0.90;;
20792;SDS011;10556;-33.662;151.094;2023-04-23T19:12:19;1.67;;;0.50;;
20792;SDS011;10556;-33.662;151.094;2023-04-23T19:17:20;2.83;;;0.70;;
20792;SDS011;10556;-33.662;151.094;2023-04-23T19:22:23;1.47;;;0.83;;
20792;SDS011;10556;-33.662;151.094;2023-04-23T19:27:24;4.07;;;0.60;;
20792;SDS011;10556;-33.662;151.094;2023-04-23T19:32:26;2.03;;;0.73;;
20792;SDS011;10556;-33.662;151.094;2023-04-23T19:37:29;1.20;;;0.80;;
20792;SDS011;10556;-33.662;151.094;2023-04-23T19:42:30;1.77;;;0.67;;
20792;SDS011;10556;-33.662;151.094;2023-04-23T19:47:32;1.73;;;0.53;;
20792;SDS011;10556;-33.662;151.094;2023-04-23T19:52:35;2.00;;;0.50;;
20792;SDS011;10556;-33.662;151.094;2023-04-23T19:57:36;3.23;;;0.50;;
20792;SDS011;10556;-33.662;151.094;2023-04-23T20:02:38;1.30;;;0.40;;
20792;SDS011;10556;-33.662;151.094;2023-04-23T20:07:41;2.63;;;0.60;;
20792;SDS011;10556;-33.662;151.094;2023-04-23T20:12:42;1.57;;;0.43;;
20792;SDS011;10556;-33.662;151.094;2023-04-23T20:17:43;1.43;;;0.40;;
20792;SDS011;10556;-33.662;151.094;2023-04-23T20:22:46;1.80;;;0.60;;
20792;SDS011;10556;-33.662;151.094;2023-04-23T20:27:48;1.03;;;0.40;;
20792;SDS011;10556;-33.662;151.094;2023-04-23T20:32:49;1.87;;;0.53;;
20792;SDS011;10556;-33.662;151.094;2023-04-23T20:37:53;2.70;;;0.50;;
20792;SDS011;10556;-33.662;151.094;2023-04-23T20:42:54;3.80;;;0.87;;
20792;SDS011;10556;-33.662;151.094;2023-04-23T20:47:55;0.70;;;0.30;;
20792;SDS011;10556;-33.662;151.094;2023-04-23T20:52:58;3.57;;;0.40;;
20792;SDS011;10556;-33.662;151.094;2023-04-23T20:58:00;2.53;;;0.40;;
20792;SDS011;10556;-33.662;151.094;2023-04-23T21:03:01;2.20;;;0.60;;
20792;SDS011;10556;-33.662;151.094;2023-04-23T21:08:04;1.43;;;0.40;;
20792;SDS011;10556;-33.662;151.094;2023-04-23T21:13:05;1.43;;;0.40;;
20792;SDS011;10556;-33.662;151.094;2023-04-23T21:18:07;1.90;;;0.50;;
20792;SDS011;10556;-33.662;151.094;2023-04-23T21:23:10;1.70;;;0.50;;
20792;SDS011;10556;-33.662;151.094;2023-04-23T21:28:11;2.20;;;0.40;;
20792;SDS011;10556;-33.662;151.094;2023-04-23T21:33:12;2.60;;;0.60;;
20792;SDS011;10556;-33.662;151.094;2023-04-23T21:38:16;1.13;;;0.50;;
20792;SDS011;10556;-33.662;151.094;2023-04-23T21:43:17;1.90;;;0.50;;
20792;SDS011;10556;-33.662;151.094;2023-04-23T21:48:18;2.20;;;0.70;;
20792;SDS011;10556;-33.662;151.094;2023-04-23T21:53:21;0.73;;;0.53;;
20792;SDS011;10556;-33.662;151.094;2023-04-23T21:58:23;1.43;;;0.40;;
20792;SDS011;10556;-33.662;151.094;2023-04-23T22:03:24;1.27;;;0.40;;
20792;SDS011;10556;-33.662;151.094;2023-04-23T22:08:27;1.00;;;0.50;;
20792;SDS011;10556;-33.662;151.094;2023-04-23T22:13:29;1.00;;;0.30;;
20792;SDS011;10556;-33.662;151.094;2023-04-23T22:18:30;0.27;;;0.20;;
20792;SDS011;10556;-33.662;151.094;2023-04-23T22:23:33;2.10;;;0.40;;
20792;SDS011;10556;-33.662;151.094;2023-04-23T22:28:34;1.23;;;0.30;;
20792;SDS011;10556;-33.662;151.094;2023-04-23T22:33:36;2.40;;;0.40;;
20792;SDS011;10556;-33.662;151.094;2023-04-23T22:38:39;0.67;;;0.23;;
20792;SDS011;10556;-33.662;151.094;2023-04-23T22:43:40;2.17;;;0.20;;
20792;SDS011;10556;-33.662;151.094;2023-04-23T22:48:41;1.50;;;0.20;;
20792;SDS011;10556;-33.662;151.094;2023-04-23T22:53:44;1.57;;;0.40;;
20792;SDS011;10556;-33.662;151.094;2023-04-23T22:58:46;2.33;;;0.20;;
20792;SDS011;10556;-33.662;151.094;2023-04-23T23:03:47;0.90;;;0.30;;
20792;SDS011;10556;-33.662;151.094;2023-04-23T23:08:50;0.77;;;0.30;;
20792;SDS011;10556;-33.662;151.094;2023-04-23T23:13:51;2.30;;;0.40;;
20792;SDS011;10556;-33.662;151.094;2023-04-23T23:18:53;0.37;;;0.20;;
20792;SDS011;10556;-33.662;151.094;2023-04-23T23:23:56;0.87;;;0.30;;
20792;SDS011;10556;-33.662;151.094;2023-04-23T23:28:57;2.37;;;0.60;;
20792;SDS011;10556;-33.662;151.094;2023-04-23T23:33:58;2.03;;;0.40;;
20792;SDS011;10556;-33.662;151.094;2023-04-23T23:39:01;0.20;;;0.10;;
20792;SDS011;10556;-33.662;151.094;2023-04-23T23:44:02;3.20;;;0.40;;
20792;SDS011;10556;-33.662;151.094;2023-04-23T23:49:04;1.40;;;0.30;;
20792;SDS011;10556;-33.662;151.094;2023-04-23T23:54:07;0.60;;;0.30;;
20792;SDS011;10556;-33.662;151.094;2023-04-23T23:59:08;1.90;;;0.40;;
